createdAt,value
2023-05-14T00:01:04.877Z,13.04
2023-05-14T00:03:31.539Z,13.02
2023-05-14T00:05:58.314Z,12.94
2023-05-14T00:08:25.045Z,12.98
2023-05-14T00:10:52.115Z,12.58
2023-05-14T00:13:18.727Z,12.39
2023-05-14T00:15:45.524Z,12.89
2023-05-14T00:18:12.435Z,12.72
2023-05-14T00:20:39.228Z,12.70
2023-05-14T00:23:05.998Z,12.84
2023-05-14T00:25:32.747Z,12.83
2023-05-14T00:28:00.706Z,12.68
2023-05-14T00:30:27.309Z,12.80
2023-05-14T00:32:54.055Z,12.84
2023-05-14T00:35:21.570Z,12.88
2023-05-14T00:37:48.411Z,12.73
2023-05-14T00:40:15.566Z,12.62
2023-05-14T00:42:42.198Z,12.83
2023-05-14T00:45:09.255Z,12.77
2023-05-14T00:47:36.461Z,12.82
2023-05-14T00:50:04.107Z,12.78
2023-05-14T00:52:32.149Z,12.76
2023-05-14T00:54:59.433Z,12.77
2023-05-14T00:57:26.343Z,12.75
2023-05-14T00:59:53.243Z,12.67
2023-05-14T01:02:19.916Z,12.59
2023-05-14T01:04:46.627Z,12.64
2023-05-14T01:07:40.962Z,12.68
2023-05-14T01:10:26.454Z,12.62
2023-05-14T01:13:04.091Z,12.13
2023-05-14T01:15:36.081Z,12.54
2023-05-14T01:18:10.408Z,12.34
2023-05-14T01:20:37.192Z,12.32
2023-05-14T01:23:03.863Z,12.43
2023-05-14T01:25:31.653Z,12.44
2023-05-14T01:28:17.980Z,12.41
2023-05-14T01:30:57.354Z,12.39
2023-05-14T01:33:27.507Z,12.30
2023-05-14T01:35:55.326Z,12.33
2023-05-14T01:38:22.830Z,12.35
2023-05-14T01:40:50.894Z,12.38
2023-05-14T01:43:17.677Z,12.30
2023-05-14T01:45:44.550Z,12.31
2023-05-14T01:48:11.342Z,12.27
2023-05-14T01:50:38.039Z,12.18
2023-05-14T01:53:04.772Z,12.26
2023-05-14T01:55:31.427Z,11.85
2023-05-14T01:57:58.231Z,12.10
2023-05-14T02:00:27.696Z,12.16
2023-05-14T02:02:54.348Z,12.13
2023-05-14T02:05:21.177Z,12.02
2023-05-14T02:07:47.843Z,12.02
2023-05-14T02:10:14.529Z,12.11
2023-05-14T02:12:41.263Z,11.92
2023-05-14T02:15:10.896Z,12.15
2023-05-14T02:17:37.656Z,12.08
2023-05-14T02:20:04.912Z,11.96
2023-05-14T02:22:31.630Z,11.99
2023-05-14T02:24:58.203Z,12.09
2023-05-14T02:27:25.205Z,11.90
2023-05-14T02:29:51.811Z,11.94
2023-05-14T02:32:18.433Z,11.91
2023-05-14T02:34:45.119Z,11.67
2023-05-14T02:37:11.667Z,11.59
2023-05-14T02:39:38.321Z,11.81
2023-05-14T02:42:05.200Z,11.50
2023-05-14T02:44:32.369Z,11.77
2023-05-14T02:46:59.123Z,11.87
2023-05-14T02:49:25.695Z,11.75
2023-05-14T02:51:54.260Z,11.85
2023-05-14T02:54:24.830Z,11.87
2023-05-14T02:56:51.412Z,11.45
2023-05-14T02:59:18.160Z,11.82
2023-05-14T03:01:45.269Z,11.76
2023-05-14T03:04:12.558Z,11.74
2023-05-14T03:06:39.144Z,11.81
2023-05-14T03:09:05.774Z,11.73
2023-05-14T03:11:32.515Z,11.86
2023-05-14T03:13:59.119Z,11.84
2023-05-14T03:16:25.727Z,11.86
2023-05-14T03:18:52.445Z,11.76
2023-05-14T03:21:19.142Z,11.92
2023-05-14T03:23:45.821Z,11.85
2023-05-14T03:26:12.543Z,11.86
2023-05-14T03:28:40.016Z,11.93
2023-05-14T03:31:06.973Z,11.88
2023-05-14T03:33:33.827Z,11.76
2023-05-14T03:36:00.586Z,11.81
2023-05-14T03:38:27.163Z,11.72
2023-05-14T03:40:54.030Z,11.66
2023-05-14T03:43:20.607Z,11.76
2023-05-14T03:45:47.157Z,11.75
2023-05-14T03:48:13.823Z,11.66
2023-05-14T03:50:40.640Z,11.64
2023-05-14T03:53:07.216Z,11.13
2023-05-14T03:55:33.809Z,11.61
2023-05-14T03:58:00.624Z,11.76
2023-05-14T04:00:27.376Z,11.76
2023-05-14T04:02:54.417Z,11.56
2023-05-14T04:05:21.121Z,11.69
2023-05-14T04:07:47.722Z,11.84
2023-05-14T04:10:14.409Z,11.91
2023-05-14T04:12:41.052Z,12.02
2023-05-14T04:15:08.391Z,12.06
2023-05-14T04:17:35.233Z,12.09
2023-05-14T04:20:02.045Z,12.17
2023-05-14T04:22:28.665Z,12.11
2023-05-14T04:24:55.293Z,12.13
2023-05-14T04:27:22.290Z,12.13
2023-05-14T04:29:50.000Z,12.24
2023-05-14T04:32:17.653Z,12.26
2023-05-14T04:34:44.435Z,12.30
2023-05-14T04:37:11.047Z,12.28
2023-05-14T04:39:38.346Z,12.27
2023-05-14T04:42:06.605Z,12.43
2023-05-14T04:44:37.707Z,12.33
2023-05-14T04:47:04.925Z,12.47
2023-05-14T04:49:31.971Z,12.51
2023-05-14T04:51:58.507Z,12.55
2023-05-14T04:54:25.408Z,12.38
2023-05-14T04:56:52.017Z,12.49
2023-05-14T04:59:18.635Z,12.58
2023-05-14T05:01:45.995Z,12.51
2023-05-14T05:04:13.026Z,12.61
2023-05-14T05:06:39.891Z,12.67
2023-05-14T05:09:06.603Z,12.40
2023-05-14T05:11:33.282Z,12.87
2023-05-14T05:13:59.865Z,12.88
2023-05-14T05:16:26.561Z,13.07
2023-05-14T05:18:53.421Z,13.18
2023-05-14T05:21:20.109Z,13.18
2023-05-14T05:23:46.944Z,13.34
2023-05-14T05:26:13.537Z,13.67
2023-05-14T05:28:40.119Z,14.11
2023-05-14T05:31:07.163Z,14.49
2023-05-14T05:33:35.088Z,14.86
2023-05-14T05:36:01.750Z,15.02
2023-05-14T05:38:28.511Z,15.46
2023-05-14T05:40:55.434Z,15.62
2023-05-14T05:43:22.180Z,15.66
2023-05-14T05:45:48.784Z,15.66
2023-05-14T05:48:15.462Z,15.83
2023-05-14T05:50:44.313Z,15.93
2023-05-14T05:53:10.993Z,15.95
2023-05-14T05:55:37.743Z,16.30
2023-05-14T05:58:04.658Z,16.42
2023-05-14T06:00:31.502Z,16.48
2023-05-14T06:02:58.351Z,16.72
2023-05-14T06:05:25.280Z,17.18
2023-05-14T06:07:53.684Z,17.70
2023-05-14T06:10:20.689Z,18.25
2023-05-14T06:12:47.444Z,18.86
2023-05-14T06:15:14.525Z,19.46
2023-05-14T06:17:41.551Z,20.11
2023-05-14T06:20:09.071Z,20.89
2023-05-14T06:22:35.846Z,21.32
2023-05-14T06:25:02.433Z,21.61
2023-05-14T06:27:29.109Z,21.79
2023-05-14T06:29:55.951Z,21.49
2023-05-14T06:32:22.790Z,20.95
2023-05-14T06:34:49.439Z,20.36
2023-05-14T06:37:16.120Z,19.96
2023-05-14T06:39:50.073Z,19.55
2023-05-14T06:42:17.643Z,19.35
2023-05-14T06:44:44.892Z,19.37
2023-05-14T06:47:11.772Z,19.23
2023-05-14T06:49:38.940Z,19.15
2023-05-14T06:52:05.943Z,19.16
2023-05-14T06:54:32.552Z,19.13
2023-05-14T06:56:59.165Z,19.35
2023-05-14T06:59:26.376Z,19.43
2023-05-14T07:01:53.086Z,19.55
2023-05-14T07:04:19.900Z,19.74
2023-05-14T07:06:46.571Z,19.82
2023-05-14T07:09:13.372Z,19.73
2023-05-14T07:11:40.006Z,19.78
2023-05-14T07:14:06.630Z,19.75
2023-05-14T07:16:33.301Z,19.94
2023-05-14T07:18:59.940Z,20.28
2023-05-14T07:21:26.575Z,20.25
2023-05-14T07:23:53.147Z,20.44
2023-05-14T07:26:19.804Z,20.76
2023-05-14T07:28:46.356Z,21.23
2023-05-14T07:31:13.053Z,21.50
2023-05-14T07:33:39.820Z,21.74
2023-05-14T07:36:07.073Z,22.15
2023-05-14T07:38:33.960Z,22.71
2023-05-14T07:41:00.697Z,22.84
2023-05-14T07:43:27.374Z,22.91
2023-05-14T07:45:54.150Z,22.49
2023-05-14T07:48:21.005Z,22.03
2023-05-14T07:50:49.421Z,21.77
2023-05-14T07:53:16.102Z,21.46
2023-05-14T07:55:44.370Z,21.46
2023-05-14T07:58:10.976Z,21.47
2023-05-14T08:00:37.920Z,21.27
2023-05-14T08:03:05.250Z,21.14
2023-05-14T08:05:33.061Z,21.05
2023-05-14T08:07:59.715Z,20.71
2023-05-14T08:10:26.844Z,20.57
2023-05-14T08:12:53.837Z,20.44
2023-05-14T08:15:20.535Z,20.15
2023-05-14T08:17:47.299Z,19.62
2023-05-14T08:20:14.527Z,19.69
2023-05-14T08:22:41.376Z,19.79
2023-05-14T08:25:08.357Z,19.72
2023-05-14T08:27:35.157Z,19.74
2023-05-14T08:30:01.803Z,19.84
2023-05-14T08:32:28.447Z,19.88
2023-05-14T08:34:55.483Z,19.83
2023-05-14T08:37:22.092Z,19.86
2023-05-14T08:39:49.254Z,19.90
2023-05-14T08:42:20.602Z,19.96
2023-05-14T08:44:55.695Z,20.00
2023-05-14T08:47:23.963Z,19.99
2023-05-14T08:50:04.444Z,19.85
2023-05-14T08:52:31.369Z,19.74
2023-05-14T08:55:00.404Z,19.54
2023-05-14T08:57:30.165Z,19.38
2023-05-14T08:59:57.224Z,19.32
2023-05-14T09:02:27.758Z,19.42
2023-05-14T09:04:55.918Z,19.44
2023-05-14T09:07:22.882Z,19.36
2023-05-14T09:09:50.002Z,19.31
2023-05-14T09:12:16.873Z,19.53
2023-05-14T09:14:44.550Z,19.74
2023-05-14T09:17:12.671Z,19.64
2023-05-14T09:19:43.513Z,19.80
2023-05-14T09:22:13.505Z,19.86
2023-05-14T09:24:41.407Z,19.96
2023-05-14T09:27:09.788Z,19.76
2023-05-14T09:29:37.163Z,19.97
2023-05-14T09:32:05.677Z,19.99
2023-05-14T09:34:34.339Z,19.98
2023-05-14T09:37:05.767Z,19.93
2023-05-14T09:39:33.394Z,19.51
2023-05-14T09:42:00.171Z,19.80
2023-05-14T09:44:27.491Z,19.81
2023-05-14T09:46:54.550Z,19.71
2023-05-14T09:49:21.685Z,19.75
2023-05-14T09:51:51.479Z,19.90
2023-05-14T09:54:18.418Z,19.97
2023-05-14T09:56:45.357Z,20.17
2023-05-14T09:59:12.152Z,20.05
2023-05-14T10:01:39.514Z,20.16
2023-05-14T10:04:08.191Z,20.32
2023-05-14T10:06:39.323Z,20.29
2023-05-14T10:09:13.061Z,20.34
2023-05-14T10:11:43.809Z,20.32
2023-05-14T10:14:29.199Z,20.60
2023-05-14T10:16:59.477Z,20.55
2023-05-14T10:19:26.749Z,20.71
2023-05-14T10:21:57.237Z,20.75
2023-05-14T10:24:24.653Z,21.08
2023-05-14T10:26:51.858Z,21.09
2023-05-14T10:29:18.688Z,20.90
2023-05-14T10:31:49.791Z,20.98
2023-05-14T10:34:40.862Z,21.10
2023-05-14T10:37:16.007Z,21.10
2023-05-14T10:39:44.132Z,21.14
2023-05-14T10:42:13.009Z,21.04
2023-05-14T10:44:47.192Z,21.24
2023-05-14T10:47:15.084Z,21.26
2023-05-14T10:49:44.040Z,21.22
2023-05-14T10:52:12.305Z,21.22
2023-05-14T10:54:39.128Z,21.26
2023-05-14T10:57:11.360Z,21.29
2023-05-14T10:59:41.918Z,21.40
2023-05-14T11:02:20.151Z,21.46
2023-05-14T11:05:05.852Z,21.42
2023-05-14T11:07:40.385Z,21.49
2023-05-14T11:10:12.678Z,21.78
2023-05-14T11:12:42.233Z,21.66
2023-05-14T11:15:14.721Z,21.66
2023-05-14T11:17:43.681Z,21.54
2023-05-14T11:20:11.410Z,21.46
2023-05-14T11:22:39.249Z,21.51
2023-05-14T11:25:06.754Z,21.61
2023-05-14T11:27:39.933Z,21.71
2023-05-14T11:30:17.608Z,21.77
2023-05-14T11:32:46.255Z,21.95
2023-05-14T11:35:13.923Z,21.78
2023-05-14T11:37:40.908Z,21.90
2023-05-14T11:40:12.538Z,22.15
2023-05-14T11:42:39.339Z,22.25
2023-05-14T11:45:06.976Z,22.28
2023-05-14T11:47:33.767Z,22.46
2023-05-14T11:50:01.167Z,22.49
2023-05-14T11:52:27.952Z,22.48
2023-05-14T11:54:54.763Z,22.31
2023-05-14T11:57:22.822Z,22.24
2023-05-14T11:59:55.636Z,22.08
2023-05-14T12:02:23.076Z,22.23
2023-05-14T12:04:54.416Z,22.21
2023-05-14T12:07:21.102Z,22.72
2023-05-14T12:09:49.873Z,22.88
2023-05-14T12:12:20.155Z,22.81
2023-05-14T12:14:47.235Z,22.63
2023-05-14T12:17:18.786Z,22.50
2023-05-14T12:19:48.481Z,22.82
2023-05-14T12:22:17.576Z,22.90
2023-05-14T12:24:53.483Z,22.98
2023-05-14T12:27:24.615Z,23.08
2023-05-14T12:30:19.130Z,23.17
2023-05-14T12:32:49.023Z,23.26
2023-05-14T12:35:15.811Z,23.24
2023-05-14T12:37:43.218Z,23.10
2023-05-14T12:40:10.364Z,23.03
2023-05-14T12:42:37.460Z,23.06
2023-05-14T12:45:07.246Z,22.89
2023-05-14T12:47:34.527Z,22.73
2023-05-14T12:50:01.529Z,23.05
2023-05-14T12:52:37.529Z,23.12
2023-05-14T12:55:07.287Z,22.70
2023-05-14T12:57:35.668Z,23.02
2023-05-14T13:00:06.898Z,23.16
2023-05-14T13:02:42.578Z,23.14
2023-05-14T13:05:11.194Z,23.24
2023-05-14T13:07:38.228Z,23.25
2023-05-14T13:10:08.505Z,23.17
2023-05-14T13:12:35.208Z,23.11
2023-05-14T13:15:02.109Z,23.20
2023-05-14T13:17:28.788Z,23.25
2023-05-14T13:19:55.582Z,23.31
2023-05-14T13:22:22.307Z,23.16
2023-05-14T13:24:48.843Z,23.30
2023-05-14T13:27:15.521Z,23.27
2023-05-14T13:29:42.316Z,23.25
2023-05-14T13:32:09.019Z,23.33
2023-05-14T13:34:36.307Z,23.30
2023-05-14T13:37:03.234Z,23.51
2023-05-14T13:39:29.812Z,23.62
2023-05-14T13:41:57.016Z,23.69
2023-05-14T13:44:24.319Z,23.65
2023-05-14T13:46:51.122Z,23.45
2023-05-14T13:49:17.910Z,23.66
2023-05-14T13:51:44.767Z,23.73
2023-05-14T13:54:11.718Z,23.68
2023-05-14T13:56:38.474Z,23.59
2023-05-14T13:59:05.958Z,23.50
2023-05-14T14:01:32.734Z,23.70
2023-05-14T14:03:59.527Z,23.69
2023-05-14T14:06:27.463Z,23.79
2023-05-14T14:08:54.230Z,23.69
2023-05-14T14:11:21.112Z,23.58
2023-05-14T14:13:47.796Z,23.57
2023-05-14T14:16:14.442Z,23.43
2023-05-14T14:18:43.102Z,23.65
2023-05-14T14:21:10.474Z,23.50
2023-05-14T14:23:37.195Z,23.57
2023-05-14T14:26:04.013Z,23.64
2023-05-14T14:28:31.365Z,23.78
2023-05-14T14:30:58.091Z,23.74
2023-05-14T14:33:24.927Z,23.76
2023-05-14T14:35:51.846Z,23.69
2023-05-14T14:38:18.527Z,23.51
2023-05-14T14:40:46.285Z,23.60
2023-05-14T14:43:13.062Z,23.55
2023-05-14T14:45:39.830Z,23.47
2023-05-14T14:48:26.571Z,23.60
2023-05-14T14:50:53.930Z,23.56
2023-05-14T14:53:21.639Z,23.49
2023-05-14T14:55:49.290Z,23.57
2023-05-14T14:58:16.128Z,23.58
2023-05-14T15:00:43.745Z,23.50
2023-05-14T15:03:10.581Z,23.31
2023-05-14T15:05:37.688Z,23.17
2023-05-14T15:08:04.909Z,23.15
2023-05-14T15:10:32.107Z,23.38
2023-05-14T15:12:59.522Z,23.40
2023-05-14T15:15:26.476Z,23.35
2023-05-14T15:17:53.258Z,23.27
2023-05-14T15:20:19.994Z,23.30
2023-05-14T15:22:46.732Z,23.26
2023-05-14T15:58:03.090Z,22.37
2023-05-14T16:00:29.934Z,22.49
2023-05-14T16:02:56.738Z,22.44
2023-05-14T16:05:23.595Z,22.33
2023-05-14T16:07:50.261Z,22.34
2023-05-14T16:10:16.917Z,22.27
2023-05-14T16:12:43.669Z,22.27
2023-05-14T16:15:10.757Z,22.43
2023-05-14T16:17:37.711Z,22.44
2023-05-14T16:20:05.348Z,22.31
2023-05-14T16:22:36.086Z,22.39
2023-05-14T16:25:04.434Z,22.39
2023-05-14T16:27:31.705Z,22.19
2023-05-14T16:29:58.447Z,22.23
2023-05-14T16:32:25.503Z,22.20
2023-05-14T16:34:52.314Z,22.02
2023-05-14T16:37:22.494Z,21.94
2023-05-14T16:39:49.126Z,21.80
2023-05-14T16:42:15.824Z,21.75
2023-05-14T16:44:42.387Z,21.53
2023-05-14T16:47:08.969Z,21.32
2023-05-14T16:49:35.691Z,21.04
2023-05-14T16:52:02.254Z,20.63
2023-05-14T16:54:28.914Z,20.76
2023-05-14T16:56:55.896Z,20.39
2023-05-14T16:59:22.484Z,20.28
2023-05-14T17:01:49.183Z,20.04
2023-05-14T17:04:15.981Z,19.91
2023-05-14T17:06:42.551Z,19.59
2023-05-14T17:09:09.242Z,19.56
2023-05-14T17:11:36.039Z,19.33
2023-05-14T17:14:02.681Z,19.22
2023-05-14T17:16:29.548Z,19.05
2023-05-14T17:18:56.445Z,18.72
2023-05-14T17:21:23.270Z,18.70
2023-05-14T17:23:49.885Z,18.56
2023-05-14T17:26:18.560Z,18.37
2023-05-14T17:28:45.420Z,18.36
2023-05-14T17:31:12.260Z,18.39
2023-05-14T17:33:39.034Z,18.42
2023-05-14T17:36:06.518Z,18.21
2023-05-14T17:38:33.121Z,18.24
2023-05-14T17:40:59.832Z,18.15
2023-05-14T17:43:26.406Z,18.12
2023-05-14T17:45:54.800Z,17.99
2023-05-14T17:48:22.838Z,17.86
2023-05-14T17:50:50.111Z,17.75
2023-05-14T17:53:16.866Z,17.60
2023-05-14T17:55:43.913Z,17.51
2023-05-14T17:58:13.423Z,17.39
2023-05-14T18:00:40.798Z,17.14
2023-05-14T18:03:10.892Z,16.93
2023-05-14T18:05:37.747Z,16.75
2023-05-14T18:08:04.581Z,16.67
2023-05-14T18:10:31.429Z,16.57
2023-05-14T18:12:58.254Z,16.56
2023-05-14T18:15:25.844Z,16.43
2023-05-14T18:17:53.162Z,16.44
2023-05-14T18:20:20.942Z,16.33
2023-05-14T18:22:47.803Z,16.24
2023-05-14T18:25:14.610Z,16.06
2023-05-14T18:27:45.132Z,16.08
2023-05-14T18:30:14.603Z,15.74
2023-05-14T18:32:43.696Z,15.64
2023-05-14T18:35:11.276Z,15.56
2023-05-14T18:37:37.942Z,15.25
2023-05-14T18:40:06.915Z,15.21
2023-05-14T18:42:34.759Z,15.30
2023-05-14T18:45:01.643Z,15.18
2023-05-14T18:47:28.587Z,14.98
2023-05-14T18:49:57.736Z,14.91
2023-05-14T18:52:24.808Z,14.90
2023-05-14T18:54:51.509Z,14.67
2023-05-14T18:57:18.163Z,14.60
2023-05-14T18:59:44.767Z,14.68
2023-05-14T19:02:11.494Z,14.55
2023-05-14T19:04:50.746Z,14.43
2023-05-14T19:07:18.930Z,14.43
2023-05-14T19:09:45.570Z,14.32
2023-05-14T19:12:12.559Z,14.40
2023-05-14T19:14:39.254Z,14.34
2023-05-14T19:17:05.974Z,14.26
2023-05-14T19:19:32.792Z,14.28
2023-05-14T19:21:59.561Z,14.15
2023-05-14T19:24:26.127Z,14.04
2023-05-14T19:26:53.058Z,14.02
2023-05-14T19:29:19.667Z,13.91
2023-05-14T19:31:47.197Z,13.82
2023-05-14T19:34:13.979Z,13.75
2023-05-14T19:36:41.702Z,13.78
2023-05-14T19:39:08.360Z,13.18
2023-05-14T19:41:35.011Z,13.81
2023-05-14T19:44:01.612Z,13.62
2023-05-14T19:46:28.317Z,13.65
2023-05-14T19:48:54.869Z,13.33
2023-05-14T19:51:21.502Z,13.47
2023-05-14T19:53:48.160Z,13.37
2023-05-14T19:56:15.625Z,13.37
2023-05-14T19:58:42.642Z,13.43
2023-05-14T20:01:09.356Z,13.37
2023-05-14T20:03:36.181Z,13.43
2023-05-14T20:06:02.853Z,13.38
2023-05-14T20:08:29.485Z,13.46
2023-05-14T20:10:56.369Z,13.38
2023-05-14T20:13:25.059Z,13.43
2023-05-14T20:15:52.097Z,13.40
2023-05-14T20:18:18.730Z,13.41
2023-05-14T20:20:45.417Z,13.51
2023-05-14T20:23:12.152Z,13.37
2023-05-14T20:25:38.855Z,13.35
2023-05-14T20:28:05.590Z,13.33
2023-05-14T20:30:32.494Z,13.38
2023-05-14T20:32:59.713Z,13.46
2023-05-14T20:35:26.806Z,13.32
2023-05-14T20:37:53.545Z,13.34
2023-05-14T20:40:21.386Z,13.29
2023-05-14T20:42:50.364Z,13.32
2023-05-14T20:45:17.221Z,13.18
2023-05-14T20:47:44.286Z,13.30
2023-05-14T20:50:11.701Z,13.21
2023-05-14T20:52:38.373Z,13.17
2023-05-14T20:55:05.608Z,13.10
2023-05-14T20:57:32.283Z,13.02
2023-05-14T20:59:58.908Z,12.97
2023-05-14T21:02:25.711Z,13.08
2023-05-14T21:04:52.741Z,13.08
2023-05-14T21:07:19.463Z,13.13
2023-05-14T21:09:50.804Z,13.00
2023-05-14T21:12:17.416Z,12.97
2023-05-14T21:14:43.979Z,13.01
2023-05-14T21:17:10.949Z,13.00
2023-05-14T21:19:37.538Z,12.89
2023-05-14T21:22:04.274Z,12.92
2023-05-14T21:24:31.082Z,12.90
2023-05-14T21:26:57.834Z,12.88
2023-05-14T21:29:24.507Z,12.70
2023-05-14T21:31:51.150Z,12.84
2023-05-14T21:34:17.764Z,12.63
2023-05-14T22:13:13.242Z,12.74
2023-05-14T22:15:39.857Z,12.80
2023-05-14T22:18:06.967Z,12.85
2023-05-14T22:20:33.787Z,12.91
2023-05-14T22:23:00.571Z,12.87
2023-05-14T22:25:27.799Z,12.87
2023-05-14T22:27:54.551Z,12.90
2023-05-14T22:30:21.363Z,12.86
2023-05-14T22:32:48.076Z,12.82
2023-05-14T22:35:14.979Z,12.83
2023-05-14T22:37:41.807Z,12.75
2023-05-14T22:40:09.152Z,12.86
2023-05-14T22:42:36.149Z,12.77
2023-05-14T22:45:03.051Z,12.84
2023-05-14T22:47:29.720Z,12.70
2023-05-14T22:49:56.586Z,12.70
2023-05-14T22:52:23.176Z,12.72
2023-05-14T22:54:51.058Z,12.73
2023-05-14T22:57:18.021Z,12.69
2023-05-14T22:59:44.639Z,12.73
2023-05-14T23:02:11.355Z,12.75
2023-05-14T23:04:38.155Z,12.66
2023-05-14T23:07:05.074Z,12.88
2023-05-14T23:09:31.605Z,12.80
2023-05-14T23:11:58.269Z,12.50
2023-05-14T23:14:24.871Z,12.86
2023-05-14T23:16:51.480Z,12.80
2023-05-14T23:19:18.421Z,12.73
2023-05-14T23:21:45.010Z,12.70
2023-05-14T23:24:11.613Z,12.76
2023-05-14T23:26:38.601Z,12.51
2023-05-14T23:29:05.181Z,12.54
2023-05-14T23:31:32.249Z,12.54
2023-05-14T23:33:59.018Z,12.61
2023-05-14T23:36:25.627Z,12.68
2023-05-14T23:38:52.495Z,12.66
2023-05-14T23:41:19.305Z,12.37
2023-05-14T23:43:45.916Z,12.46
2023-05-14T23:46:13.069Z,12.78
2023-05-14T23:48:39.750Z,12.79
2023-05-14T23:51:06.364Z,12.80
2023-05-14T23:53:32.926Z,12.84
2023-05-14T23:55:59.689Z,12.83
2023-05-14T23:58:26.393Z,12.74
